»·PEaware :: N520JG KSAN-KSNA

N520JG :: KSAN-KSNA

FLIGHT INFORMATION

Flight Status: Arrived
Operator: Privately registered:
United States
More flights under this callsign
Pilot: Scott M. (2887)
Aircraft: CANADAIR CL-600 CRJ-700
(CRJ7)
More flights by this aircraft type
Origin: KSAN San Diego Intl-Lindbergh
United States
Destination: KSNA John Wayne-Orange Co
United States
More flights between these airports :: More routes between these airports
Route: CWARD2 SLI
File this flight plan on PilotEdge
Remarks:
Altitude:
(Current/Filed)
10,000ft
Speed:
(Current/Filed)
295kts
Departed: 27-Sep-18 03:04 PM
Arrived: 27-Sep-18 03:27 PM
Distance/Time
Traveled:
66nm/0:23
Distance/Time
To Go:
Arrived

Flight Plot

Page will automatically refresh every two minutes.

Flight plan parsing failed; only flown route is shown


Map Options




Map Legend


Flown Route
Filed Route
Departure Airport
Arrival Airport
Navaid (VOR, NDB)
Fix

Horizontal Profiles

Position Reports

Time Latitude Longitude Heading Altitude Ground
Speed
27-Sep-18 14:10 32.734516 -117.186409 195 22ft 0kts
27-Sep-18 14:11 32.734512 -117.186410 195 22ft 0kts
27-Sep-18 14:12 32.734508 -117.186412 195 22ft 0kts
27-Sep-18 14:13 32.734503 -117.186413 195 22ft 0kts
27-Sep-18 14:14 32.734498 -117.186415 195 22ft 0kts
27-Sep-18 14:15 32.734495 -117.186416 195 22ft 0kts
27-Sep-18 14:16 32.734491 -117.186417 195 22ft 0kts
27-Sep-18 14:17 32.734488 -117.186418 195 22ft 0kts
27-Sep-18 14:18 32.734484 -117.186420 195 22ft 0kts
27-Sep-18 14:19 32.734479 -117.186421 195 22ft 0kts
27-Sep-18 14:20 32.734474 -117.186423 195 22ft 0kts
27-Sep-18 14:21 32.734470 -117.186424 195 22ft 0kts
27-Sep-18 14:22 32.734465 -117.186426 195 22ft 0kts
27-Sep-18 14:23 32.734460 -117.186428 195 22ft 0kts
27-Sep-18 14:24 32.734456 -117.186429 195 22ft 0kts
27-Sep-18 14:25 32.734451 -117.186431 195 22ft 0kts
27-Sep-18 14:26 32.734609 -117.186377 195 22ft 0kts
27-Sep-18 14:27 32.734604 -117.186379 195 22ft 0kts
27-Sep-18 14:28 32.734599 -117.186381 195 22ft 0kts
27-Sep-18 14:29 32.734594 -117.186382 195 22ft 0kts
27-Sep-18 14:30 32.734590 -117.186384 195 22ft 0kts
27-Sep-18 14:31 32.734586 -117.186385 195 22ft 0kts
27-Sep-18 14:32 32.734584 -117.186386 195 22ft 0kts
27-Sep-18 14:33 32.734582 -117.186386 195 22ft 0kts
27-Sep-18 14:34 32.734582 -117.186386 195 22ft 0kts
27-Sep-18 14:35 32.734582 -117.186386 195 22ft 0kts
27-Sep-18 14:36 32.734582 -117.186386 195 22ft 0kts
27-Sep-18 14:37 32.734582 -117.186386 195 22ft 0kts
27-Sep-18 14:38 32.734582 -117.186386 195 22ft 0kts
27-Sep-18 14:39 32.734582 -117.186386 195 22ft 0kts
27-Sep-18 14:40 32.734582 -117.186386 195 22ft 0kts
27-Sep-18 14:41 32.734582 -117.186386 195 22ft 0kts
27-Sep-18 14:42 32.734582 -117.186386 195 22ft 0kts
27-Sep-18 14:43 32.734582 -117.186386 195 22ft 0kts
27-Sep-18 14:44 32.734580 -117.186387 195 22ft 0kts
27-Sep-18 14:45 32.734576 -117.186389 195 22ft 0kts
27-Sep-18 14:46 32.734571 -117.186390 195 22ft 0kts
27-Sep-18 14:47 32.734569 -117.186391 195 22ft 0kts
27-Sep-18 14:48 32.734564 -117.186393 195 22ft 0kts
27-Sep-18 14:49 32.734559 -117.186394 195 22ft 0kts
27-Sep-18 14:50 32.734556 -117.186395 195 22ft 0kts
27-Sep-18 14:51 32.734552 -117.186397 195 22ft 0kts
27-Sep-18 14:52 32.734547 -117.186398 195 22ft 0kts
27-Sep-18 14:53 32.734543 -117.186400 195 22ft 0kts
27-Sep-18 14:54 32.734537 -117.186401 195 22ft 0kts
27-Sep-18 14:55 32.734534 -117.186403 195 22ft 0kts
27-Sep-18 14:56 32.734528 -117.186405 195 22ft 0kts
27-Sep-18 14:57 32.734523 -117.186406 195 22ft 0kts
27-Sep-18 14:58 32.734520 -117.186407 195 22ft 0kts
27-Sep-18 14:59 32.734515 -117.186409 195 22ft 0kts
27-Sep-18 15:00 32.734464 -117.186426 195 22ft 3kts
27-Sep-18 15:01 32.733408 -117.184348 104 22ft 7kts
27-Sep-18 15:02 32.732715 -117.181473 106 22ft 14kts
27-Sep-18 15:03 32.731714 -117.177336 105 22ft 13kts
27-Sep-18 15:04 32.731060 -117.175529 140 22ft 9kts
27-Sep-18 15:05 32.730240 -117.175888 280 22ft 0kts
27-Sep-18 15:06 32.736423 -117.201317 288 698ft 155kts
27-Sep-18 15:07 32.762337 -117.249449 303 3315ft 219kts
27-Sep-18 15:08 32.800386 -117.319101 303 5520ft 271kts
27-Sep-18 15:09 32.847775 -117.393275 306 8031ft 289kts
27-Sep-18 15:10 32.897865 -117.470866 306 9975ft 320kts
27-Sep-18 15:11 32.958734 -117.565418 306 9973ft 375kts
27-Sep-18 15:12 33.020236 -117.661774 306 9967ft 359kts
27-Sep-18 15:13 33.081765 -117.752839 316 9974ft 364kts
27-Sep-18 15:14 33.163517 -117.829533 318 9973ft 381kts
27-Sep-18 15:15 33.258674 -117.881769 351 9983ft 389kts
27-Sep-18 15:16 33.358770 -117.902225 345 9992ft 314kts
27-Sep-18 15:17 33.432546 -117.926626 343 8275ft 293kts
27-Sep-18 15:18 33.508983 -117.954701 342 7010ft 270kts
27-Sep-18 15:19 33.575121 -117.978824 343 7009ft 289kts
27-Sep-18 15:20 33.644776 -117.999097 8 5252ft 279kts
27-Sep-18 15:21 33.716034 -117.970660 21 4003ft 244kts
27-Sep-18 15:22 33.774761 -117.944728 21 3241ft 224kts
27-Sep-18 15:23 33.830336 -117.918604 22 2978ft 212kts
27-Sep-18 15:24 33.845426 -117.860266 102 2988ft 218kts
27-Sep-18 15:25 33.815341 -117.800850 162 2995ft 203kts
27-Sep-18 15:26 33.768562 -117.809180 214 1983ft 159kts
27-Sep-18 15:27 33.733019 -117.832666 204 1216ft 142kts
27-Sep-18 15:28 33.695401 -117.855890 211 425ft 132kts
27-Sep-18 15:29 33.671356 -117.871601 208 63ft 27kts
27-Sep-18 15:30 33.669040 -117.871051 59 63ft 5kts
27-Sep-18 15:31 33.671342 -117.868416 46 63ft 9kts
27-Sep-18 15:32 33.671362 -117.867480 25 63ft 0kts
27-Sep-18 15:33 33.671362 -117.867480 25 63ft 0kts
27-Sep-18 15:34 33.671362 -117.867480 25 63ft 0kts
27-Sep-18 15:35 33.676510 -117.863473 116 63ft 0kts
27-Sep-18 15:36 33.676510 -117.863473 116 63ft 0kts
27-Sep-18 15:37 33.676510 -117.863473 116 63ft 0kts
27-Sep-18 15:38 33.676510 -117.863472 116 70ft 0kts
27-Sep-18 15:39 33.676510 -117.863472 116 70ft 0kts
27-Sep-18 15:40 33.676508 -117.863467 116 70ft 0kts
27-Sep-18 15:41 33.676505 -117.863461 116 70ft 0kts
27-Sep-18 15:42 33.676502 -117.863454 116 70ft 0kts
27-Sep-18 15:43 33.676500 -117.863448 116 70ft 0kts

Navigation Log

Ident Type
Flight plan parsing failed, navigation log unavailable